createdAt,value
2023-01-19T00:01:28.416Z,22.42
2023-01-19T00:03:56.167Z,13.27
2023-01-19T00:06:24.019Z,12.27
2023-01-19T00:08:51.830Z,10.90
2023-01-19T00:11:20.323Z,12.90
2023-01-19T00:13:51.008Z,11.32
2023-01-19T00:16:19.704Z,12.52
2023-01-19T00:18:47.722Z,17.50
2023-01-19T00:21:15.842Z,15.23
2023-01-19T00:23:47.339Z,16.75
2023-01-19T00:26:17.322Z,15.05
2023-01-19T00:28:45.484Z,10.88
2023-01-19T00:31:14.655Z,17.90
2023-01-19T00:33:42.503Z,13.57
2023-01-19T00:36:11.314Z,15.68
2023-01-19T00:38:39.805Z,20.10
2023-01-19T00:41:08.047Z,12.85
2023-01-19T00:43:35.855Z,14.02
2023-01-19T00:46:03.686Z,14.13
2023-01-19T00:48:32.972Z,11.65
2023-01-19T00:51:01.091Z,11.68
2023-01-19T00:53:32.477Z,9.40
2023-01-19T00:56:00.301Z,12.88
2023-01-19T00:58:28.091Z,13.87
2023-01-19T01:00:57.830Z,12.45
2023-01-19T01:03:28.182Z,13.88
2023-01-19T01:05:57.470Z,13.40
2023-01-19T01:08:25.459Z,10.38
2023-01-19T01:10:53.333Z,7.63
2023-01-19T01:13:22.336Z,13.38
2023-01-19T01:15:52.009Z,13.68
2023-01-19T01:18:20.033Z,12.52
2023-01-19T01:20:47.849Z,9.88
2023-01-19T01:23:22.903Z,12.10
2023-01-19T01:25:50.925Z,11.70
2023-01-19T01:28:18.759Z,13.70
2023-01-19T01:30:46.569Z,14.63
2023-01-19T01:33:14.349Z,9.65
2023-01-19T01:35:42.398Z,14.53
2023-01-19T01:38:10.699Z,11.73
2023-01-19T01:40:41.774Z,19.80
2023-01-19T01:43:13.457Z,13.95
2023-01-19T01:45:42.224Z,14.80
2023-01-19T01:48:13.949Z,14.97
2023-01-19T01:51:07.827Z,15.68
2023-01-19T01:53:38.560Z,10.52
2023-01-19T01:56:13.805Z,11.82
2023-01-19T01:58:42.083Z,18.48
2023-01-19T02:01:29.331Z,12.13
2023-01-19T02:03:58.577Z,15.40
2023-01-19T02:06:26.923Z,11.90
2023-01-19T02:09:18.063Z,15.73
2023-01-19T02:12:05.514Z,13.75
2023-01-19T02:14:33.341Z,14.87
2023-01-19T02:17:01.228Z,13.25
2023-01-19T02:19:35.492Z,14.05
2023-01-19T02:22:09.013Z,9.05
2023-01-19T02:24:38.903Z,10.40
2023-01-19T02:27:08.934Z,14.63
2023-01-19T02:29:36.960Z,18.77
2023-01-19T02:32:05.710Z,9.73
2023-01-19T02:34:33.884Z,9.35
2023-01-19T02:37:06.738Z,11.57
2023-01-19T02:39:38.719Z,10.93
2023-01-19T02:42:16.488Z,12.85
2023-01-19T02:44:48.179Z,10.10
2023-01-19T02:47:16.496Z,8.90
2023-01-19T02:49:44.281Z,7.95
2023-01-19T02:52:17.133Z,12.40
2023-01-19T02:54:58.723Z,8.10
2023-01-19T02:57:43.682Z,10.68
2023-01-19T03:00:24.805Z,6.60
2023-01-19T03:03:09.111Z,10.15
2023-01-19T03:05:50.348Z,9.47
2023-01-19T03:08:29.094Z,10.68
2023-01-19T03:11:03.227Z,8.30
2023-01-19T03:13:42.883Z,9.75
2023-01-19T03:16:17.458Z,11.90
2023-01-19T03:18:48.650Z,9.67
2023-01-19T03:21:19.609Z,9.40
2023-01-19T03:23:48.890Z,9.73
2023-01-19T03:26:24.858Z,10.27
2023-01-19T03:28:56.788Z,8.90
2023-01-19T03:31:27.971Z,11.03
2023-01-19T03:33:59.704Z,8.10
2023-01-19T03:36:33.110Z,8.90
2023-01-19T03:39:03.449Z,9.90
2023-01-19T03:41:34.236Z,11.85
2023-01-19T03:44:06.253Z,10.90
2023-01-19T03:46:35.152Z,12.25
2023-01-19T03:49:03.156Z,10.75
2023-01-19T03:51:31.190Z,8.70
2023-01-19T03:53:58.969Z,11.00
2023-01-19T03:56:26.907Z,9.23
2023-01-19T03:58:56.203Z,12.98
2023-01-19T04:01:26.821Z,12.10
2023-01-19T04:03:54.870Z,14.85
2023-01-19T04:06:23.037Z,9.38
2023-01-19T04:08:52.303Z,11.37
2023-01-19T04:11:20.103Z,9.65
2023-01-19T04:13:47.891Z,13.25
2023-01-19T04:16:20.018Z,13.85
2023-01-19T04:18:49.435Z,14.23
2023-01-19T04:21:18.182Z,10.43
2023-01-19T04:23:46.109Z,12.45
2023-01-19T04:26:14.471Z,14.40
2023-01-19T04:28:42.688Z,9.07
2023-01-19T04:31:10.620Z,13.10
2023-01-19T04:33:38.516Z,11.80
2023-01-19T04:36:08.556Z,7.90
2023-01-19T04:38:36.955Z,12.05
2023-01-19T04:41:05.060Z,12.20
2023-01-19T04:43:32.941Z,7.43
2023-01-19T04:46:00.771Z,11.40
2023-01-19T04:48:28.598Z,9.95
2023-01-19T04:50:56.379Z,7.03
2023-01-19T04:53:25.563Z,6.15
2023-01-19T04:55:55.832Z,7.80
2023-01-19T04:58:24.017Z,6.43
2023-01-19T05:00:53.025Z,7.50
2023-01-19T05:03:21.539Z,3.75
2023-01-19T05:05:49.389Z,5.90
2023-01-19T05:08:17.187Z,5.15
2023-01-19T05:10:46.373Z,6.20
2023-01-19T05:13:14.155Z,4.60
2023-01-19T05:15:42.055Z,5.32
2023-01-19T05:18:09.904Z,6.03
2023-01-19T05:20:37.701Z,5.50
2023-01-19T05:23:05.501Z,5.10
2023-01-19T05:25:33.288Z,4.75
2023-01-19T05:28:03.207Z,4.03
2023-01-19T05:30:31.074Z,5.75
2023-01-19T05:32:59.315Z,8.48
2023-01-19T05:35:35.768Z,8.20
2023-01-19T05:38:04.259Z,9.57
2023-01-19T05:43:47.104Z,7.70
2023-01-19T05:46:16.524Z,10.90
2023-01-19T05:48:45.140Z,8.90
2023-01-19T05:51:12.950Z,10.43
2023-01-19T05:53:40.679Z,17.00
2023-01-19T05:56:10.405Z,13.40
2023-01-19T05:58:39.470Z,17.20
2023-01-19T06:01:09.388Z,9.73
2023-01-19T06:03:39.375Z,8.10
2023-01-19T06:06:07.649Z,8.63
2023-01-19T06:08:39.818Z,9.18
2023-01-19T06:18:29.218Z,8.27
2023-01-19T06:20:58.063Z,6.53
2023-01-19T06:23:24.598Z,7.35
2023-01-19T06:25:50.965Z,7.95
2023-01-19T06:28:17.357Z,6.25
2023-01-19T06:30:45.811Z,7.43
2023-01-19T06:33:12.000Z,10.50
2023-01-19T06:39:03.228Z,9.55
2023-01-19T06:41:30.842Z,11.65
2023-01-19T06:43:58.392Z,8.85
2023-01-19T06:46:26.081Z,10.10
2023-01-19T06:48:53.630Z,11.32
2023-01-19T06:51:21.204Z,14.48
2023-01-19T06:53:48.723Z,13.10
2023-01-19T06:56:17.655Z,10.73
2023-01-19T06:58:47.601Z,12.70
2023-01-19T07:01:15.352Z,9.65
2023-01-19T07:03:43.836Z,9.73
2023-01-19T07:06:12.559Z,14.30
2023-01-19T07:08:40.217Z,14.70
2023-01-19T07:11:25.098Z,14.33
2023-01-19T07:13:57.561Z,14.90
2023-01-19T07:16:25.290Z,12.20
2023-01-19T07:18:52.879Z,9.65
2023-01-19T07:21:20.470Z,13.57
2023-01-19T07:23:49.103Z,11.30
2023-01-19T07:26:18.618Z,11.40
2023-01-19T07:28:47.412Z,10.80
2023-01-19T07:31:17.887Z,11.10
2023-01-19T07:33:45.693Z,11.65
2023-01-19T07:36:13.640Z,14.00
2023-01-19T07:38:41.276Z,15.05
2023-01-19T07:41:10.313Z,12.68
2023-01-19T07:43:37.903Z,14.18
2023-01-19T07:46:06.574Z,15.05
2023-01-19T07:48:35.587Z,13.00
2023-01-19T07:51:05.422Z,10.25
2023-01-19T07:53:33.254Z,9.82
2023-01-19T07:56:00.826Z,12.85
2023-01-19T07:58:28.396Z,9.48
2023-01-19T08:00:56.020Z,10.35
2023-01-19T08:03:23.914Z,8.77
2023-01-19T08:05:53.291Z,8.48
2023-01-19T08:08:21.004Z,9.18
2023-01-19T08:10:50.724Z,12.95
2023-01-19T08:13:18.647Z,11.40
2023-01-19T08:15:46.272Z,11.52
2023-01-19T08:18:15.648Z,9.85
2023-01-19T08:20:43.221Z,12.82
2023-01-19T08:23:12.185Z,12.93
2023-01-19T08:25:42.112Z,8.70
2023-01-19T08:28:10.449Z,12.10
2023-01-19T08:30:38.543Z,10.68
2023-01-19T08:33:08.131Z,8.77
2023-01-19T08:35:37.034Z,8.85
2023-01-19T08:38:04.912Z,12.40
2023-01-19T08:40:34.865Z,8.18
2023-01-19T08:43:06.684Z,10.07
2023-01-19T08:45:34.644Z,10.45
2023-01-19T08:48:02.214Z,11.30
2023-01-19T08:50:30.480Z,8.25
2023-01-19T08:52:58.456Z,10.63
2023-01-19T08:55:26.280Z,9.77
2023-01-19T08:57:57.019Z,10.38
2023-01-19T09:00:25.136Z,9.70
2023-01-19T09:02:52.706Z,11.43
2023-01-19T09:05:20.496Z,10.90
2023-01-19T09:07:48.733Z,8.68
2023-01-19T09:10:16.836Z,8.27
2023-01-19T09:12:45.043Z,10.25
2023-01-19T09:15:14.862Z,9.57
2023-01-19T09:17:42.508Z,8.98
2023-01-19T09:20:10.636Z,11.98
2023-01-19T09:22:39.664Z,10.68
2023-01-19T09:25:07.879Z,9.15
2023-01-19T09:27:35.502Z,9.15
2023-01-19T09:30:03.123Z,9.77
2023-01-19T09:32:32.015Z,11.52
2023-01-19T09:34:59.631Z,10.00
2023-01-19T09:37:27.163Z,10.10
2023-01-19T09:39:54.753Z,11.15
2023-01-19T09:42:25.604Z,9.70
2023-01-19T09:44:54.434Z,9.20
2023-01-19T09:47:24.681Z,8.60
2023-01-19T09:49:55.727Z,10.20
2023-01-19T09:52:23.325Z,10.63
2023-01-19T09:54:53.930Z,8.55
2023-01-19T09:57:22.289Z,11.40
2023-01-19T09:59:51.381Z,7.03
2023-01-19T10:02:33.183Z,9.40
2023-01-19T10:05:02.764Z,9.63
2023-01-19T10:07:53.181Z,9.13
2023-01-19T10:10:21.704Z,8.70
2023-01-19T10:12:58.541Z,7.45
2023-01-19T10:15:31.533Z,8.43
2023-01-19T10:18:09.302Z,9.00
2023-01-19T10:20:40.078Z,8.02
2023-01-19T10:23:18.872Z,9.20
2023-01-19T10:25:47.757Z,11.23
2023-01-19T10:28:16.569Z,9.55
2023-01-19T10:30:45.611Z,10.10
2023-01-19T10:33:13.691Z,8.80
2023-01-19T10:35:42.931Z,11.55
2023-01-19T10:38:13.089Z,9.57
2023-01-19T10:40:46.887Z,8.48
2023-01-19T10:43:29.299Z,10.63
2023-01-19T10:45:57.064Z,9.30
2023-01-19T10:48:24.861Z,9.73
2023-01-19T10:51:02.285Z,9.98
2023-01-19T10:53:29.894Z,9.88
2023-01-19T10:56:12.121Z,9.05
2023-01-19T10:58:40.350Z,8.37
2023-01-19T11:01:14.315Z,11.77
2023-01-19T11:03:41.948Z,8.43
2023-01-19T11:06:24.518Z,11.15
2023-01-19T11:08:52.643Z,9.13
2023-01-19T11:11:21.270Z,11.93
2023-01-19T11:14:03.949Z,9.20
2023-01-19T11:16:34.783Z,8.57
2023-01-19T11:19:03.563Z,9.25
2023-01-19T11:21:33.508Z,7.78
2023-01-19T11:24:02.132Z,9.20
2023-01-19T11:26:31.290Z,8.85
2023-01-19T11:28:59.684Z,7.40
2023-01-19T11:31:34.558Z,11.27
2023-01-19T11:34:02.815Z,8.48
2023-01-19T11:36:31.208Z,8.57
2023-01-19T11:39:01.265Z,9.82
2023-01-19T11:41:29.970Z,8.35
2023-01-19T11:43:58.534Z,12.77
2023-01-19T11:46:27.612Z,8.85
2023-01-19T11:49:01.818Z,8.90
2023-01-19T11:51:31.752Z,8.77
2023-01-19T11:54:02.428Z,9.32
2023-01-19T11:56:30.379Z,7.38
2023-01-19T11:58:58.008Z,7.18
2023-01-19T12:01:26.927Z,7.43
2023-01-19T12:03:58.584Z,8.30
2023-01-19T12:06:27.461Z,7.25
2023-01-19T12:08:56.141Z,8.18
2023-01-19T12:11:27.481Z,9.13
2023-01-19T12:13:55.050Z,7.70
2023-01-19T12:16:23.802Z,8.27
2023-01-19T12:18:54.143Z,7.28
2023-01-19T12:21:22.176Z,6.32
2023-01-19T12:23:54.638Z,7.70
2023-01-19T12:26:28.406Z,5.50
2023-01-19T12:28:57.389Z,7.40
2023-01-19T12:31:25.294Z,7.25
2023-01-19T12:33:52.951Z,9.98
2023-01-19T12:36:36.753Z,6.93
2023-01-19T12:39:05.171Z,10.07
2023-01-19T12:41:34.796Z,7.80
2023-01-19T12:44:34.140Z,6.40
2023-01-19T12:47:06.370Z,7.82
2023-01-19T12:49:41.876Z,5.20
2023-01-19T12:52:14.255Z,4.70
2023-01-19T12:54:43.400Z,4.65
2023-01-19T12:57:18.437Z,5.47
2023-01-19T12:59:46.081Z,4.82
2023-01-19T13:02:41.880Z,3.78
2023-01-19T13:05:17.569Z,5.03
2023-01-19T13:08:04.822Z,6.43
2023-01-19T13:10:50.855Z,4.93
2023-01-19T13:13:21.239Z,5.07
2023-01-19T13:15:48.958Z,4.90
2023-01-19T13:18:18.747Z,6.30
2023-01-19T13:20:50.989Z,5.13
2023-01-19T13:23:23.400Z,6.50
2023-01-19T13:26:04.523Z,3.90
2023-01-19T13:28:37.025Z,4.40
2023-01-19T13:31:05.157Z,5.70
2023-01-19T13:33:40.660Z,4.88
2023-01-19T13:36:16.251Z,3.90
2023-01-19T13:38:43.949Z,4.32
2023-01-19T13:41:16.013Z,3.38
2023-01-19T13:43:45.082Z,3.63
2023-01-19T13:46:14.717Z,4.97
2023-01-19T13:48:53.094Z,3.75
2023-01-19T13:51:21.079Z,3.70
2023-01-19T13:53:55.562Z,3.30
2023-01-19T13:56:24.275Z,2.67
2023-01-19T13:59:05.127Z,4.55
2023-01-19T14:01:33.217Z,3.13
2023-01-19T14:04:01.083Z,2.58
2023-01-19T14:06:33.726Z,2.60
2023-01-19T14:09:08.023Z,4.28
2023-01-19T14:11:35.743Z,2.63
2023-01-19T14:14:04.712Z,2.47
2023-01-19T14:16:32.349Z,2.65
2023-01-19T14:19:00.695Z,3.22
2023-01-19T14:21:37.727Z,2.83
2023-01-19T14:24:08.994Z,2.63
2023-01-19T14:26:40.083Z,2.40
2023-01-19T14:29:24.220Z,3.33
2023-01-19T14:31:52.752Z,3.85
2023-01-19T14:34:33.085Z,3.58
2023-01-19T14:37:01.034Z,3.08
2023-01-19T14:39:29.668Z,2.60
2023-01-19T14:41:59.618Z,2.47
2023-01-19T14:44:30.455Z,3.00
2023-01-19T14:46:59.519Z,2.22
2023-01-19T14:49:30.996Z,2.83
2023-01-19T14:51:58.608Z,3.42
2023-01-19T14:54:30.317Z,4.35
2023-01-19T14:56:57.871Z,1.90
2023-01-19T14:59:25.550Z,3.28
2023-01-19T15:01:54.612Z,3.72
2023-01-19T15:04:23.144Z,3.08
2023-01-19T15:06:50.681Z,4.90
2023-01-19T15:09:18.649Z,5.10
2023-01-19T15:11:48.017Z,6.65
2023-01-19T15:14:16.426Z,3.08
2023-01-19T15:16:44.261Z,3.25
2023-01-19T15:19:14.006Z,3.38
2023-01-19T15:21:42.351Z,4.13
2023-01-19T15:24:10.729Z,7.72
2023-01-19T15:26:39.383Z,4.55
2023-01-19T15:29:14.782Z,2.67
2023-01-19T15:31:42.406Z,5.18
2023-01-19T15:34:11.142Z,6.15
2023-01-19T15:36:40.218Z,4.00
2023-01-19T15:39:07.855Z,3.70
2023-01-19T15:41:35.610Z,4.72
2023-01-19T15:44:05.013Z,6.80
2023-01-19T15:46:33.176Z,3.63
2023-01-19T15:49:00.760Z,5.40
2023-01-19T15:51:28.892Z,2.85
2023-01-19T15:53:57.888Z,3.00
2023-01-19T15:56:26.144Z,2.58
2023-01-19T15:58:54.296Z,3.25
2023-01-19T16:01:22.932Z,2.35
2023-01-19T16:03:50.699Z,4.60
2023-01-19T16:06:19.169Z,2.67
2023-01-19T16:08:46.832Z,4.18
2023-01-19T16:11:18.479Z,2.90
2023-01-19T16:13:46.407Z,2.25
2023-01-19T16:16:15.417Z,5.72
2023-01-19T16:18:43.061Z,2.88
2023-01-19T16:21:10.609Z,3.67
2023-01-19T16:23:38.430Z,2.42
2023-01-19T16:26:07.858Z,2.60
2023-01-19T16:28:37.625Z,3.40
2023-01-19T16:31:05.567Z,2.90
2023-01-19T16:33:33.141Z,3.50
2023-01-19T16:36:00.686Z,5.10
2023-01-19T16:38:28.224Z,3.15
2023-01-19T16:40:55.752Z,3.38
2023-01-19T16:43:23.295Z,3.60
2023-01-19T16:45:59.326Z,4.43
2023-01-19T16:48:27.161Z,6.85
2023-01-19T16:51:01.567Z,3.50
2023-01-19T16:53:29.982Z,4.32
2023-01-19T16:55:57.531Z,1.85
2023-01-19T16:58:25.292Z,4.90
2023-01-19T17:00:53.171Z,2.85
2023-01-19T17:03:22.438Z,2.80
2023-01-19T17:05:50.750Z,2.47
2023-01-19T17:08:18.883Z,5.47
2023-01-19T17:10:46.465Z,3.35
2023-01-19T17:13:14.081Z,4.72
2023-01-19T17:15:41.687Z,3.25
2023-01-19T17:18:10.157Z,3.28
2023-01-19T17:20:39.178Z,5.25
2023-01-19T17:23:06.726Z,3.15
2023-01-19T17:25:34.299Z,5.70
2023-01-19T17:28:02.236Z,5.47
2023-01-19T17:30:29.950Z,6.85
2023-01-19T17:32:57.545Z,3.13
2023-01-19T17:35:25.099Z,8.75
2023-01-19T17:37:56.017Z,4.27
2023-01-19T17:40:25.981Z,3.72
2023-01-19T17:42:53.761Z,3.25
2023-01-19T17:45:21.364Z,6.53
2023-01-19T17:47:49.209Z,3.63
2023-01-19T17:50:17.231Z,4.03
2023-01-19T17:52:44.807Z,3.63
2023-01-19T17:55:13.740Z,5.25
2023-01-19T17:57:41.345Z,5.85
2023-01-19T18:00:09.438Z,4.30
2023-01-19T18:02:37.003Z,6.13
2023-01-19T18:05:04.689Z,4.45
2023-01-19T18:07:32.228Z,3.92
2023-01-19T18:10:01.155Z,4.53
2023-01-19T18:12:31.302Z,3.17
2023-01-19T18:14:59.067Z,6.23
2023-01-19T18:17:26.713Z,7.25
2023-01-19T18:19:54.724Z,7.20
2023-01-19T18:22:22.298Z,7.07
2023-01-19T18:24:50.030Z,8.65
2023-01-19T18:27:17.683Z,3.67
2023-01-19T18:29:46.724Z,5.95
2023-01-19T18:32:14.384Z,5.15
2023-01-19T18:34:42.419Z,3.95
2023-01-19T18:37:10.385Z,5.15
2023-01-19T18:39:38.321Z,6.30
2023-01-19T18:42:06.086Z,3.67
2023-01-19T18:44:33.822Z,12.38
2023-01-19T18:47:03.029Z,3.72
2023-01-19T18:49:31.095Z,7.60
2023-01-19T18:51:59.254Z,6.63
2023-01-19T18:54:27.036Z,1.90
2023-01-19T18:56:54.613Z,2.88
2023-01-19T18:59:22.247Z,4.22
2023-01-19T19:01:50.225Z,3.17
2023-01-19T19:04:19.478Z,3.83
2023-01-19T19:06:47.554Z,6.43
2023-01-19T19:09:15.523Z,5.00
2023-01-19T19:11:43.448Z,6.03
2023-01-19T19:14:11.020Z,4.22
2023-01-19T19:16:39.588Z,3.47
2023-01-19T19:19:08.419Z,5.53
2023-01-19T19:21:37.310Z,3.13
2023-01-19T19:24:04.968Z,3.60
2023-01-19T19:26:32.664Z,4.35
2023-01-19T19:29:01.263Z,3.13
2023-01-19T19:31:30.150Z,3.67
2023-01-19T19:33:58.395Z,7.35
2023-01-19T19:36:26.327Z,3.47
2023-01-19T19:38:55.265Z,2.80
2023-01-19T19:41:23.538Z,2.67
2023-01-19T19:43:51.661Z,6.25
2023-01-19T19:46:20.247Z,6.40
2023-01-19T19:48:48.161Z,3.63
2023-01-19T19:51:19.239Z,4.68
2023-01-19T19:53:48.416Z,4.40
2023-01-19T19:56:22.104Z,2.63
2023-01-19T19:58:50.277Z,2.00
2023-01-19T20:01:18.816Z,2.15
2023-01-19T20:03:46.387Z,2.33
2023-01-19T20:06:15.258Z,3.60
2023-01-19T20:08:42.810Z,3.20
2023-01-19T20:11:10.923Z,5.00
2023-01-19T20:13:40.600Z,2.60
2023-01-19T20:16:10.139Z,4.70
2023-01-19T20:18:38.068Z,5.03
2023-01-19T20:21:12.629Z,7.63
2023-01-19T20:23:40.506Z,2.92
2023-01-19T20:26:08.799Z,2.58
2023-01-19T20:28:36.404Z,3.03
2023-01-19T20:31:15.363Z,4.90
2023-01-19T20:33:43.394Z,3.55
2023-01-19T20:36:11.634Z,4.18
2023-01-19T20:38:39.731Z,5.10
2023-01-19T20:41:08.737Z,5.13
2023-01-19T20:43:36.978Z,7.97
2023-01-19T20:46:06.075Z,7.80
2023-01-19T20:48:35.161Z,3.92
2023-01-19T20:51:03.532Z,4.53
2023-01-19T20:53:31.429Z,5.22
2023-01-19T20:55:59.470Z,4.07
2023-01-19T20:58:27.001Z,3.58
2023-01-19T21:00:54.754Z,4.25
2023-01-19T21:03:22.485Z,3.28
2023-01-19T21:05:52.153Z,3.25
2023-01-19T21:08:19.838Z,9.07
2023-01-19T21:10:47.623Z,3.53
2023-01-19T21:13:15.701Z,4.68
2023-01-19T21:15:43.724Z,4.82
2023-01-19T21:18:11.320Z,3.35
2023-01-19T21:20:38.925Z,3.93
2023-01-19T21:23:07.967Z,2.88
2023-01-19T21:25:37.157Z,6.57
2023-01-19T21:28:04.774Z,4.63
2023-01-19T21:30:32.374Z,2.90
2023-01-19T21:32:59.942Z,3.97
2023-01-19T21:35:27.498Z,3.78
2023-01-19T21:37:55.067Z,3.05
2023-01-19T21:40:23.992Z,3.63
2023-01-19T21:42:53.176Z,3.20
2023-01-19T21:45:20.759Z,2.80
2023-01-19T21:47:48.297Z,5.60
2023-01-19T21:50:15.938Z,3.05
2023-01-19T21:52:44.197Z,2.92
2023-01-19T21:55:12.096Z,3.28
2023-01-19T21:57:44.009Z,3.23
2023-01-19T22:00:12.095Z,3.33
2023-01-19T22:02:39.808Z,4.03
2023-01-19T22:05:07.864Z,3.10
2023-01-19T22:07:35.430Z,3.97
2023-01-19T22:10:02.996Z,3.57
2023-01-19T22:12:30.614Z,4.50
2023-01-19T22:14:59.554Z,2.88
2023-01-19T22:17:27.117Z,4.18
2023-01-19T22:19:54.669Z,3.95
2023-01-19T22:22:22.217Z,4.10
2023-01-19T22:24:50.622Z,2.85
2023-01-19T22:27:18.249Z,4.38
2023-01-19T22:29:45.835Z,3.25
2023-01-19T22:32:14.782Z,5.55
2023-01-19T22:34:42.364Z,2.80
2023-01-19T22:37:09.897Z,4.97
2023-01-19T22:39:37.509Z,4.03
2023-01-19T22:42:05.054Z,3.30
2023-01-19T22:44:32.619Z,5.13
2023-01-19T22:47:00.154Z,7.63
2023-01-19T22:49:29.298Z,3.22
2023-01-19T22:51:57.341Z,3.08
2023-01-19T22:54:24.877Z,3.80
2023-01-19T22:56:52.436Z,3.55
2023-01-19T22:59:20.004Z,3.60
2023-01-19T23:01:47.692Z,3.08
2023-01-19T23:04:16.432Z,3.22
2023-01-19T23:06:46.922Z,3.03
2023-01-19T23:09:15.427Z,2.88
2023-01-19T23:11:43.831Z,4.43
2023-01-19T23:14:14.573Z,1.98
2023-01-19T23:16:42.165Z,2.95
2023-01-19T23:19:12.096Z,2.67
2023-01-19T23:21:39.660Z,1.88
2023-01-19T23:24:09.082Z,1.90
2023-01-19T23:26:38.249Z,4.55
2023-01-19T23:29:07.501Z,1.90
2023-01-19T23:31:35.742Z,4.47
2023-01-19T23:34:04.471Z,2.42
2023-01-19T23:36:32.999Z,2.90
2023-01-19T23:39:01.566Z,2.40
2023-01-19T23:41:31.017Z,7.85
2023-01-19T23:43:58.550Z,2.75
2023-01-19T23:46:26.249Z,3.30
2023-01-19T23:48:54.233Z,2.27
2023-01-19T23:51:22.478Z,2.97
2023-01-19T23:53:50.167Z,2.17
2023-01-19T23:56:19.155Z,2.10
2023-01-19T23:58:48.936Z,1.60
